Terminal Aerodrome Forecast
Issued by NWS Duluth, MN

Home | Current Version | Previous Version | Text Only | Print | Product List | Glossary On
Versions: 1 2 3 4 5 6 7 8 9 10 11 12 13 14 15 16 17 18 19 20 21 22 23 24 25
000
FTUS43 KDLH 201357 AAA
TAFINL
TAF AMD
KINL 201357Z 2014/2112 21012G19KT P6SM BKN011 BKN050
     FM201800 25010G17KT P6SM SCT050
     FM210000 23005KT P6SM FEW050=

USA.gov is the U.S. government's official web portal to all federal, state and local government web resources and services.